sensor_id;sensor_type;location;lat;lon;timestamp;P1;durP1;ratioP1;P2;durP2;ratioP2
60502;SDS011;51448;51.660;5.824;2022-07-23T00:00:32;7.32;;;3.97;;
60502;SDS011;51448;51.660;5.824;2022-07-23T00:03:05;8.85;;;3.80;;
60502;SDS011;51448;51.660;5.824;2022-07-23T00:05:34;8.13;;;4.15;;
60502;SDS011;51448;51.660;5.824;2022-07-23T00:08:03;9.35;;;3.90;;
60502;SDS011;51448;51.660;5.824;2022-07-23T00:10:39;9.45;;;4.05;;
60502;SDS011;51448;51.660;5.824;2022-07-23T00:13:06;7.07;;;3.92;;
60502;SDS011;51448;51.660;5.824;2022-07-23T00:15:34;7.60;;;4.07;;
60502;SDS011;51448;51.660;5.824;2022-07-23T00:18:02;9.38;;;4.28;;
60502;SDS011;51448;51.660;5.824;2022-07-23T00:20:29;6.50;;;3.55;;
60502;SDS011;51448;51.660;5.824;2022-07-23T00:22:57;8.25;;;4.53;;
60502;SDS011;51448;51.660;5.824;2022-07-23T00:25:26;10.45;;;4.65;;
60502;SDS011;51448;51.660;5.824;2022-07-23T00:28:00;9.77;;;4.13;;
60502;SDS011;51448;51.660;5.824;2022-07-23T00:30:29;7.85;;;3.78;;
60502;SDS011;51448;51.660;5.824;2022-07-23T00:33:00;9.07;;;4.07;;
60502;SDS011;51448;51.660;5.824;2022-07-23T00:35:33;6.70;;;3.80;;
60502;SDS011;51448;51.660;5.824;2022-07-23T00:38:04;6.45;;;3.72;;
60502;SDS011;51448;51.660;5.824;2022-07-23T00:40:32;7.22;;;3.90;;
60502;SDS011;51448;51.660;5.824;2022-07-23T00:43:00;7.50;;;3.70;;
60502;SDS011;51448;51.660;5.824;2022-07-23T00:45:29;7.38;;;3.88;;
60502;SDS011;51448;51.660;5.824;2022-07-23T00:47:58;8.32;;;3.70;;
60502;SDS011;51448;51.660;5.824;2022-07-23T00:50:27;6.53;;;3.88;;
60502;SDS011;51448;51.660;5.824;2022-07-23T00:52:56;6.13;;;3.50;;
60502;SDS011;51448;51.660;5.824;2022-07-23T00:55:24;6.22;;;3.80;;
60502;SDS011;51448;51.660;5.824;2022-07-23T00:57:52;7.57;;;3.83;;
60502;SDS011;51448;51.660;5.824;2022-07-23T01:00:21;5.75;;;3.40;;
60502;SDS011;51448;51.660;5.824;2022-07-23T01:02:50;6.75;;;3.90;;
60502;SDS011;51448;51.660;5.824;2022-07-23T01:05:19;8.13;;;4.22;;
60502;SDS011;51448;51.660;5.824;2022-07-23T01:07:50;5.68;;;3.42;;
60502;SDS011;51448;51.660;5.824;2022-07-23T01:10:23;8.45;;;4.00;;
60502;SDS011;51448;51.660;5.824;2022-07-23T01:13:05;8.75;;;3.28;;
60502;SDS011;51448;51.660;5.824;2022-07-23T01:15:37;5.88;;;3.70;;
60502;SDS011;51448;51.660;5.824;2022-07-23T01:18:06;8.88;;;3.75;;
60502;SDS011;51448;51.660;5.824;2022-07-23T01:20:37;8.63;;;3.97;;
60502;SDS011;51448;51.660;5.824;2022-07-23T01:23:05;7.97;;;3.65;;
60502;SDS011;51448;51.660;5.824;2022-07-23T01:25:34;6.78;;;3.53;;
60502;SDS011;51448;51.660;5.824;2022-07-23T01:28:03;9.88;;;5.07;;
60502;SDS011;51448;51.660;5.824;2022-07-23T01:30:31;7.28;;;3.88;;
60502;SDS011;51448;51.660;5.824;2022-07-23T01:33:01;8.25;;;4.65;;
60502;SDS011;51448;51.660;5.824;2022-07-23T01:35:28;6.50;;;4.05;;
60502;SDS011;51448;51.660;5.824;2022-07-23T01:38:00;7.15;;;4.53;;
60502;SDS011;51448;51.660;5.824;2022-07-23T01:40:28;7.65;;;3.85;;
60502;SDS011;51448;51.660;5.824;2022-07-23T01:42:57;7.32;;;4.03;;
60502;SDS011;51448;51.660;5.824;2022-07-23T01:45:27;7.93;;;4.25;;
60502;SDS011;51448;51.660;5.824;2022-07-23T01:47:55;8.77;;;4.20;;
60502;SDS011;51448;51.660;5.824;2022-07-23T01:50:22;7.00;;;4.45;;
60502;SDS011;51448;51.660;5.824;2022-07-23T01:53:19;7.82;;;4.55;;
60502;SDS011;51448;51.660;5.824;2022-07-23T01:55:48;7.50;;;4.32;;
60502;SDS011;51448;51.660;5.824;2022-07-23T01:58:15;6.13;;;3.97;;
60502;SDS011;51448;51.660;5.824;2022-07-23T02:00:43;9.70;;;4.28;;
60502;SDS011;51448;51.660;5.824;2022-07-23T02:03:10;7.95;;;4.10;;
60502;SDS011;51448;51.660;5.824;2022-07-23T02:05:38;7.97;;;4.05;;
60502;SDS011;51448;51.660;5.824;2022-07-23T02:08:06;8.15;;;3.78;;
60502;SDS011;51448;51.660;5.824;2022-07-23T02:10:36;7.63;;;4.68;;
60502;SDS011;51448;51.660;5.824;2022-07-23T02:13:04;7.38;;;4.38;;
60502;SDS011;51448;51.660;5.824;2022-07-23T02:15:32;8.13;;;4.20;;
60502;SDS011;51448;51.660;5.824;2022-07-23T02:18:00;7.00;;;5.00;;
60502;SDS011;51448;51.660;5.824;2022-07-23T02:20:28;5.95;;;4.05;;
60502;SDS011;51448;51.660;5.824;2022-07-23T02:22:55;6.70;;;4.13;;
60502;SDS011;51448;51.660;5.824;2022-07-23T02:25:23;8.73;;;3.97;;
60502;SDS011;51448;51.660;5.824;2022-07-23T02:27:55;7.40;;;3.97;;
60502;SDS011;51448;51.660;5.824;2022-07-23T02:30:22;9.32;;;4.80;;
60502;SDS011;51448;51.660;5.824;2022-07-23T02:32:51;6.55;;;4.30;;
60502;SDS011;51448;51.660;5.824;2022-07-23T02:35:20;5.80;;;4.10;;
60502;SDS011;51448;51.660;5.824;2022-07-23T02:37:48;7.72;;;4.30;;
60502;SDS011;51448;51.660;5.824;2022-07-23T02:40:17;6.85;;;4.00;;
60502;SDS011;51448;51.660;5.824;2022-07-23T02:42:45;6.20;;;4.40;;
60502;SDS011;51448;51.660;5.824;2022-07-23T02:45:13;6.75;;;4.40;;
60502;SDS011;51448;51.660;5.824;2022-07-23T02:47:41;7.63;;;4.35;;
60502;SDS011;51448;51.660;5.824;2022-07-23T02:50:09;7.15;;;4.30;;
60502;SDS011;51448;51.660;5.824;2022-07-23T02:52:39;6.38;;;4.15;;
60502;SDS011;51448;51.660;5.824;2022-07-23T02:55:07;7.20;;;4.38;;
60502;SDS011;51448;51.660;5.824;2022-07-23T02:57:36;8.02;;;4.07;;
60502;SDS011;51448;51.660;5.824;2022-07-23T03:00:04;6.07;;;4.13;;
60502;SDS011;51448;51.660;5.824;2022-07-23T03:02:34;7.03;;;4.28;;
60502;SDS011;51448;51.660;5.824;2022-07-23T03:05:02;5.90;;;3.90;;
60502;SDS011;51448;51.660;5.824;2022-07-23T03:07:31;7.40;;;4.80;;
60502;SDS011;51448;51.660;5.824;2022-07-23T03:09:58;6.95;;;3.88;;
60502;SDS011;51448;51.660;5.824;2022-07-23T03:12:26;7.57;;;4.13;;
60502;SDS011;51448;51.660;5.824;2022-07-23T03:14:54;5.75;;;4.20;;
60502;SDS011;51448;51.660;5.824;2022-07-23T03:17:22;7.53;;;4.40;;
60502;SDS011;51448;51.660;5.824;2022-07-23T03:19:49;7.47;;;4.30;;
60502;SDS011;51448;51.660;5.824;2022-07-23T03:22:17;6.85;;;4.10;;
60502;SDS011;51448;51.660;5.824;2022-07-23T03:24:45;7.45;;;5.10;;
60502;SDS011;51448;51.660;5.824;2022-07-23T03:27:25;7.05;;;4.93;;
60502;SDS011;51448;51.660;5.824;2022-07-23T03:29:56;5.93;;;4.43;;
60502;SDS011;51448;51.660;5.824;2022-07-23T03:32:26;5.70;;;4.40;;
60502;SDS011;51448;51.660;5.824;2022-07-23T03:34:55;6.85;;;4.47;;
60502;SDS011;51448;51.660;5.824;2022-07-23T03:37:24;6.70;;;5.00;;
60502;SDS011;51448;51.660;5.824;2022-07-23T03:39:52;7.55;;;4.80;;
60502;SDS011;51448;51.660;5.824;2022-07-23T03:42:19;8.55;;;4.68;;
60502;SDS011;51448;51.660;5.824;2022-07-23T03:44:47;8.25;;;4.43;;
60502;SDS011;51448;51.660;5.824;2022-07-23T03:47:16;6.80;;;4.82;;
60502;SDS011;51448;51.660;5.824;2022-07-23T03:49:44;7.13;;;4.63;;
60502;SDS011;51448;51.660;5.824;2022-07-23T03:52:12;8.80;;;4.60;;
60502;SDS011;51448;51.660;5.824;2022-07-23T03:54:39;8.85;;;5.25;;
60502;SDS011;51448;51.660;5.824;2022-07-23T03:57:07;7.70;;;5.30;;
60502;SDS011;51448;51.660;5.824;2022-07-23T03:59:34;8.18;;;5.90;;
60502;SDS011;51448;51.660;5.824;2022-07-23T04:02:02;6.85;;;4.78;;
60502;SDS011;51448;51.660;5.824;2022-07-23T04:04:30;8.75;;;4.68;;
60502;SDS011;51448;51.660;5.824;2022-07-23T04:06:58;6.55;;;4.88;;
60502;SDS011;51448;51.660;5.824;2022-07-23T04:09:25;8.25;;;4.80;;
60502;SDS011;51448;51.660;5.824;2022-07-23T04:11:54;7.60;;;4.60;;
60502;SDS011;51448;51.660;5.824;2022-07-23T04:14:21;7.25;;;4.43;;
60502;SDS011;51448;51.660;5.824;2022-07-23T04:16:49;6.78;;;4.90;;
60502;SDS011;51448;51.660;5.824;2022-07-23T04:19:18;9.27;;;5.80;;
60502;SDS011;51448;51.660;5.824;2022-07-23T04:22:05;9.35;;;5.25;;
60502;SDS011;51448;51.660;5.824;2022-07-23T04:24:35;8.48;;;5.72;;
60502;SDS011;51448;51.660;5.824;2022-07-23T04:27:04;10.60;;;6.00;;
60502;SDS011;51448;51.660;5.824;2022-07-23T04:29:32;7.80;;;5.10;;
60502;SDS011;51448;51.660;5.824;2022-07-23T04:31:59;8.35;;;6.13;;
60502;SDS011;51448;51.660;5.824;2022-07-23T04:34:27;9.80;;;5.78;;
60502;SDS011;51448;51.660;5.824;2022-07-23T04:36:55;8.85;;;6.28;;
60502;SDS011;51448;51.660;5.824;2022-07-23T04:39:23;11.68;;;6.45;;
60502;SDS011;51448;51.660;5.824;2022-07-23T04:41:51;11.57;;;6.63;;
60502;SDS011;51448;51.660;5.824;2022-07-23T04:44:19;9.60;;;6.57;;
60502;SDS011;51448;51.660;5.824;2022-07-23T04:46:47;10.88;;;6.95;;
60502;SDS011;51448;51.660;5.824;2022-07-23T04:49:16;9.75;;;6.32;;
60502;SDS011;51448;51.660;5.824;2022-07-23T04:51:45;12.45;;;7.50;;
60502;SDS011;51448;51.660;5.824;2022-07-23T04:54:13;12.13;;;7.15;;
60502;SDS011;51448;51.660;5.824;2022-07-23T04:56:44;8.77;;;6.32;;
60502;SDS011;51448;51.660;5.824;2022-07-23T04:59:12;9.90;;;6.68;;
60502;SDS011;51448;51.660;5.824;2022-07-23T05:01:41;10.82;;;7.18;;
60502;SDS011;51448;51.660;5.824;2022-07-23T05:04:10;12.63;;;6.68;;
60502;SDS011;51448;51.660;5.824;2022-07-23T05:06:39;9.68;;;6.10;;
60502;SDS011;51448;51.660;5.824;2022-07-23T05:09:07;11.23;;;7.32;;
60502;SDS011;51448;51.660;5.824;2022-07-23T05:11:36;11.25;;;7.15;;
60502;SDS011;51448;51.660;5.824;2022-07-23T05:14:03;7.80;;;6.63;;
60502;SDS011;51448;51.660;5.824;2022-07-23T05:16:32;10.82;;;6.68;;
60502;SDS011;51448;51.660;5.824;2022-07-23T05:19:06;11.75;;;7.78;;
60502;SDS011;51448;51.660;5.824;2022-07-23T05:21:35;8.90;;;7.00;;
60502;SDS011;51448;51.660;5.824;2022-07-23T05:24:03;10.18;;;6.93;;
60502;SDS011;51448;51.660;5.824;2022-07-23T05:26:31;10.32;;;7.43;;
60502;SDS011;51448;51.660;5.824;2022-07-23T05:28:59;9.98;;;7.03;;
60502;SDS011;51448;51.660;5.824;2022-07-23T05:31:26;9.35;;;7.95;;
60502;SDS011;51448;51.660;5.824;2022-07-23T05:33:54;10.60;;;7.15;;
60502;SDS011;51448;51.660;5.824;2022-07-23T05:36:22;10.02;;;7.47;;
60502;SDS011;51448;51.660;5.824;2022-07-23T05:38:52;10.50;;;8.07;;
60502;SDS011;51448;51.660;5.824;2022-07-23T05:41:20;10.20;;;8.32;;
60502;SDS011;51448;51.660;5.824;2022-07-23T05:43:48;12.38;;;8.77;;
60502;SDS011;51448;51.660;5.824;2022-07-23T05:46:15;12.65;;;8.30;;
60502;SDS011;51448;51.660;5.824;2022-07-23T05:48:48;13.52;;;8.18;;
60502;SDS011;51448;51.660;5.824;2022-07-23T05:51:37;12.18;;;8.43;;
60502;SDS011;51448;51.660;5.824;2022-07-23T05:54:04;10.13;;;8.10;;
60502;SDS011;51448;51.660;5.824;2022-07-23T05:56:36;11.27;;;8.18;;
60502;SDS011;51448;51.660;5.824;2022-07-23T05:59:04;12.70;;;8.65;;
60502;SDS011;51448;51.660;5.824;2022-07-23T06:01:33;13.80;;;7.97;;
60502;SDS011;51448;51.660;5.824;2022-07-23T06:04:10;10.88;;;7.85;;
60502;SDS011;51448;51.660;5.824;2022-07-23T06:06:42;12.02;;;8.45;;
60502;SDS011;51448;51.660;5.824;2022-07-23T06:09:11;11.93;;;8.93;;
60502;SDS011;51448;51.660;5.824;2022-07-23T06:11:41;14.95;;;8.05;;
60502;SDS011;51448;51.660;5.824;2022-07-23T06:14:08;10.45;;;6.95;;
60502;SDS011;51448;51.660;5.824;2022-07-23T06:16:49;12.57;;;8.07;;
60502;SDS011;51448;51.660;5.824;2022-07-23T06:19:16;11.05;;;7.38;;
60502;SDS011;51448;51.660;5.824;2022-07-23T06:21:45;9.77;;;7.20;;
60502;SDS011;51448;51.660;5.824;2022-07-23T06:24:15;10.90;;;6.90;;
60502;SDS011;51448;51.660;5.824;2022-07-23T06:26:43;10.15;;;7.95;;
60502;SDS011;51448;51.660;5.824;2022-07-23T06:29:11;10.05;;;7.47;;
60502;SDS011;51448;51.660;5.824;2022-07-23T06:31:39;8.80;;;6.47;;
60502;SDS011;51448;51.660;5.824;2022-07-23T06:34:07;10.10;;;6.47;;
60502;SDS011;51448;51.660;5.824;2022-07-23T06:36:35;8.35;;;6.30;;
60502;SDS011;51448;51.660;5.824;2022-07-23T06:39:05;13.10;;;6.13;;
60502;SDS011;51448;51.660;5.824;2022-07-23T06:41:35;7.43;;;5.47;;
60502;SDS011;51448;51.660;5.824;2022-07-23T06:44:03;8.55;;;5.30;;
60502;SDS011;51448;51.660;5.824;2022-07-23T06:46:33;7.43;;;5.53;;
60502;SDS011;51448;51.660;5.824;2022-07-23T06:49:01;9.55;;;4.97;;
60502;SDS011;51448;51.660;5.824;2022-07-23T06:51:32;8.38;;;5.80;;
60502;SDS011;51448;51.660;5.824;2022-07-23T06:54:01;7.97;;;4.47;;
60502;SDS011;51448;51.660;5.824;2022-07-23T06:56:31;7.72;;;4.80;;
60502;SDS011;51448;51.660;5.824;2022-07-23T06:58:59;9.00;;;5.50;;
60502;SDS011;51448;51.660;5.824;2022-07-23T07:01:27;8.38;;;5.22;;
60502;SDS011;51448;51.660;5.824;2022-07-23T07:03:55;8.43;;;5.10;;
60502;SDS011;51448;51.660;5.824;2022-07-23T07:06:23;9.52;;;4.65;;
60502;SDS011;51448;51.660;5.824;2022-07-23T07:08:51;9.98;;;4.40;;
60502;SDS011;51448;51.660;5.824;2022-07-23T07:11:18;6.05;;;3.50;;
60502;SDS011;51448;51.660;5.824;2022-07-23T07:13:46;6.82;;;3.80;;
60502;SDS011;51448;51.660;5.824;2022-07-23T07:16:14;7.68;;;3.90;;
60502;SDS011;51448;51.660;5.824;2022-07-23T07:18:41;8.27;;;3.35;;
60502;SDS011;51448;51.660;5.824;2022-07-23T07:21:09;6.30;;;2.80;;
60502;SDS011;51448;51.660;5.824;2022-07-23T07:23:36;7.68;;;3.25;;
60502;SDS011;51448;51.660;5.824;2022-07-23T07:26:04;10.52;;;3.50;;
60502;SDS011;51448;51.660;5.824;2022-07-23T07:28:31;6.88;;;2.78;;
60502;SDS011;51448;51.660;5.824;2022-07-23T07:31:00;8.60;;;3.50;;
60502;SDS011;51448;51.660;5.824;2022-07-23T07:33:29;8.75;;;3.75;;
60502;SDS011;51448;51.660;5.824;2022-07-23T07:35:57;6.78;;;3.55;;
60502;SDS011;51448;51.660;5.824;2022-07-23T07:38:26;7.65;;;3.65;;
60502;SDS011;51448;51.660;5.824;2022-07-23T07:40:54;5.60;;;2.90;;
60502;SDS011;51448;51.660;5.824;2022-07-23T07:43:22;6.03;;;2.70;;
60502;SDS011;51448;51.660;5.824;2022-07-23T07:45:49;6.43;;;2.83;;
60502;SDS011;51448;51.660;5.824;2022-07-23T07:48:17;6.32;;;2.88;;
60502;SDS011;51448;51.660;5.824;2022-07-23T07:50:45;5.97;;;2.97;;
60502;SDS011;51448;51.660;5.824;2022-07-23T07:53:12;7.90;;;2.60;;
60502;SDS011;51448;51.660;5.824;2022-07-23T07:55:40;7.45;;;2.95;;
60502;SDS011;51448;51.660;5.824;2022-07-23T07:58:07;5.93;;;2.75;;
60502;SDS011;51448;51.660;5.824;2022-07-23T08:00:35;6.47;;;2.75;;
60502;SDS011;51448;51.660;5.824;2022-07-23T08:03:02;6.70;;;2.78;;
60502;SDS011;51448;51.660;5.824;2022-07-23T08:05:30;5.53;;;2.60;;
60502;SDS011;51448;51.660;5.824;2022-07-23T08:07:58;6.45;;;2.75;;
60502;SDS011;51448;51.660;5.824;2022-07-23T08:10:27;7.25;;;2.85;;
60502;SDS011;51448;51.660;5.824;2022-07-23T08:12:58;4.90;;;2.60;;
60502;SDS011;51448;51.660;5.824;2022-07-23T08:15:28;4.93;;;2.55;;
60502;SDS011;51448;51.660;5.824;2022-07-23T08:17:58;7.30;;;2.70;;
60502;SDS011;51448;51.660;5.824;2022-07-23T08:20:27;4.97;;;2.28;;
60502;SDS011;51448;51.660;5.824;2022-07-23T08:22:57;7.55;;;2.95;;
60502;SDS011;51448;51.660;5.824;2022-07-23T08:25:26;8.27;;;3.03;;
60502;SDS011;51448;51.660;5.824;2022-07-23T08:27:57;6.25;;;2.90;;
60502;SDS011;51448;51.660;5.824;2022-07-23T08:30:27;6.35;;;2.78;;
60502;SDS011;51448;51.660;5.824;2022-07-23T08:32:57;7.63;;;3.10;;
60502;SDS011;51448;51.660;5.824;2022-07-23T08:35:31;5.15;;;2.63;;
60502;SDS011;51448;51.660;5.824;2022-07-23T08:38:03;7.82;;;3.50;;
60502;SDS011;51448;51.660;5.824;2022-07-23T08:40:33;6.50;;;2.80;;
60502;SDS011;51448;51.660;5.824;2022-07-23T08:43:11;6.20;;;3.28;;
60502;SDS011;51448;51.660;5.824;2022-07-23T08:45:43;5.90;;;3.15;;
60502;SDS011;51448;51.660;5.824;2022-07-23T08:48:18;7.78;;;4.10;;
60502;SDS011;51448;51.660;5.824;2022-07-23T08:50:52;9.13;;;3.67;;
60502;SDS011;51448;51.660;5.824;2022-07-23T08:53:25;7.85;;;3.60;;
60502;SDS011;51448;51.660;5.824;2022-07-23T08:55:58;6.45;;;3.53;;
60502;SDS011;51448;51.660;5.824;2022-07-23T08:58:29;7.38;;;2.97;;
60502;SDS011;51448;51.660;5.824;2022-07-23T09:00:59;6.15;;;3.15;;
60502;SDS011;51448;51.660;5.824;2022-07-23T09:03:34;8.00;;;3.63;;
60502;SDS011;51448;51.660;5.824;2022-07-23T09:06:05;6.70;;;3.58;;
60502;SDS011;51448;51.660;5.824;2022-07-23T09:08:37;6.43;;;3.38;;
60502;SDS011;51448;51.660;5.824;2022-07-23T09:11:11;6.97;;;3.58;;
60502;SDS011;51448;51.660;5.824;2022-07-23T09:13:50;8.43;;;4.03;;
60502;SDS011;51448;51.660;5.824;2022-07-23T09:16:28;7.10;;;3.72;;
60502;SDS011;51448;51.660;5.824;2022-07-23T09:19:03;11.05;;;4.10;;
60502;SDS011;51448;51.660;5.824;2022-07-23T09:21:34;7.05;;;4.40;;
60502;SDS011;51448;51.660;5.824;2022-07-23T09:26:39;7.38;;;4.43;;
60502;SDS011;51448;51.660;5.824;2022-07-23T09:36:52;5.70;;;3.30;;
60502;SDS011;51448;51.660;5.824;2022-07-23T09:39:25;5.53;;;2.88;;
60502;SDS011;51448;51.660;5.824;2022-07-23T09:42:12;6.70;;;3.08;;
60502;SDS011;51448;51.660;5.824;2022-07-23T09:44:42;5.82;;;2.83;;
60502;SDS011;51448;51.660;5.824;2022-07-23T09:47:12;5.50;;;2.87;;
60502;SDS011;51448;51.660;5.824;2022-07-23T09:49:40;6.25;;;2.90;;
60502;SDS011;51448;51.660;5.824;2022-07-23T09:52:29;6.00;;;3.35;;
60502;SDS011;51448;51.660;5.824;2022-07-23T09:55:03;6.38;;;3.00;;
60502;SDS011;51448;51.660;5.824;2022-07-23T09:57:33;7.67;;;3.33;;
60502;SDS011;51448;51.660;5.824;2022-07-23T10:00:02;7.35;;;3.55;;
60502;SDS011;51448;51.660;5.824;2022-07-23T10:02:33;6.97;;;3.17;;
60502;SDS011;51448;51.660;5.824;2022-07-23T10:05:19;8.60;;;3.78;;
60502;SDS011;51448;51.660;5.824;2022-07-23T10:08:11;4.63;;;2.80;;
60502;SDS011;51448;51.660;5.824;2022-07-23T10:11:03;6.43;;;3.17;;
60502;SDS011;51448;51.660;5.824;2022-07-23T10:14:03;5.97;;;3.22;;
60502;SDS011;51448;51.660;5.824;2022-07-23T10:16:52;5.55;;;2.92;;
60502;SDS011;51448;51.660;5.824;2022-07-23T10:19:21;5.20;;;2.63;;
60502;SDS011;51448;51.660;5.824;2022-07-23T10:21:55;6.18;;;3.22;;
60502;SDS011;51448;51.660;5.824;2022-07-23T10:24:41;6.80;;;3.13;;
60502;SDS011;51448;51.660;5.824;2022-07-23T10:30:32;17.63;;;4.47;;
60502;SDS011;51448;51.660;5.824;2022-07-23T10:39:24;8.80;;;3.53;;
60502;SDS011;51448;51.660;5.824;2022-07-23T10:42:07;10.20;;;4.10;;
60502;SDS011;51448;51.660;5.824;2022-07-23T10:44:44;5.50;;;3.00;;
60502;SDS011;51448;51.660;5.824;2022-07-23T10:47:25;7.97;;;3.53;;
60502;SDS011;51448;51.660;5.824;2022-07-23T10:50:31;8.00;;;3.88;;
60502;SDS011;51448;51.660;5.824;2022-07-23T10:58:01;5.72;;;2.78;;
60502;SDS011;51448;51.660;5.824;2022-07-23T11:00:31;5.68;;;2.65;;
60502;SDS011;51448;51.660;5.824;2022-07-23T11:03:01;6.25;;;3.67;;
60502;SDS011;51448;51.660;5.824;2022-07-23T11:05:54;6.55;;;3.63;;
60502;SDS011;51448;51.660;5.824;2022-07-23T11:08:21;7.03;;;2.90;;
60502;SDS011;51448;51.660;5.824;2022-07-23T11:10:51;7.38;;;2.50;;
60502;SDS011;51448;51.660;5.824;2022-07-23T11:13:29;7.07;;;2.58;;
60502;SDS011;51448;51.660;5.824;2022-07-23T11:16:14;5.53;;;2.70;;
60502;SDS011;51448;51.660;5.824;2022-07-23T11:18:59;5.78;;;3.17;;
60502;SDS011;51448;51.660;5.824;2022-07-23T11:24:04;6.80;;;2.70;;
60502;SDS011;51448;51.660;5.824;2022-07-23T11:26:44;5.97;;;3.53;;
60502;SDS011;51448;51.660;5.824;2022-07-23T11:31:59;8.50;;;3.40;;
60502;SDS011;51448;51.660;5.824;2022-07-23T11:34:44;6.22;;;2.95;;
60502;SDS011;51448;51.660;5.824;2022-07-23T11:37:34;5.43;;;2.40;;
60502;SDS011;51448;51.660;5.824;2022-07-23T11:40:06;6.18;;;2.97;;
60502;SDS011;51448;51.660;5.824;2022-07-23T11:42:38;6.30;;;2.92;;
60502;SDS011;51448;51.660;5.824;2022-07-23T11:45:22;6.20;;;3.33;;
60502;SDS011;51448;51.660;5.824;2022-07-23T11:47:53;7.13;;;3.33;;
60502;SDS011;51448;51.660;5.824;2022-07-23T11:50:22;5.70;;;3.35;;
60502;SDS011;51448;51.660;5.824;2022-07-23T11:55:20;7.25;;;3.50;;
60502;SDS011;51448;51.660;5.824;2022-07-23T11:57:50;6.45;;;2.95;;
60502;SDS011;51448;51.660;5.824;2022-07-23T12:00:21;6.70;;;3.00;;
60502;SDS011;51448;51.660;5.824;2022-07-23T12:03:05;6.88;;;3.60;;
60502;SDS011;51448;51.660;5.824;2022-07-23T12:05:36;7.50;;;3.33;;
60502;SDS011;51448;51.660;5.824;2022-07-23T12:08:06;6.10;;;3.22;;
60502;SDS011;51448;51.660;5.824;2022-07-23T12:10:40;5.30;;;3.00;;
60502;SDS011;51448;51.660;5.824;2022-07-23T12:13:15;5.28;;;2.80;;
60502;SDS011;51448;51.660;5.824;2022-07-23T12:15:47;7.88;;;3.55;;
60502;SDS011;51448;51.660;5.824;2022-07-23T12:18:25;7.38;;;2.53;;
60502;SDS011;51448;51.660;5.824;2022-07-23T12:20:54;5.30;;;3.10;;
60502;SDS011;51448;51.660;5.824;2022-07-23T12:23:25;5.72;;;2.78;;
60502;SDS011;51448;51.660;5.824;2022-07-23T12:25:54;6.38;;;3.35;;
60502;SDS011;51448;51.660;5.824;2022-07-23T12:28:22;5.38;;;3.40;;
60502;SDS011;51448;51.660;5.824;2022-07-23T12:30:58;7.05;;;2.83;;
60502;SDS011;51448;51.660;5.824;2022-07-23T12:33:27;7.18;;;3.40;;
60502;SDS011;51448;51.660;5.824;2022-07-23T12:36:00;5.68;;;3.47;;
60502;SDS011;51448;51.660;5.824;2022-07-23T12:38:41;6.68;;;3.75;;
60502;SDS011;51448;51.660;5.824;2022-07-23T12:41:13;7.00;;;3.00;;
60502;SDS011;51448;51.660;5.824;2022-07-23T12:43:43;7.28;;;3.38;;
60502;SDS011;51448;51.660;5.824;2022-07-23T12:46:14;6.47;;;3.00;;
60502;SDS011;51448;51.660;5.824;2022-07-23T12:51:25;6.97;;;3.13;;
60502;SDS011;51448;51.660;5.824;2022-07-23T12:54:04;6.53;;;3.78;;
60502;SDS011;51448;51.660;5.824;2022-07-23T12:56:36;6.82;;;3.42;;
60502;SDS011;51448;51.660;5.824;2022-07-23T12:59:08;6.90;;;3.45;;
60502;SDS011;51448;51.660;5.824;2022-07-23T13:01:42;7.18;;;3.10;;
60502;SDS011;51448;51.660;5.824;2022-07-23T13:04:19;6.75;;;2.85;;
60502;SDS011;51448;51.660;5.824;2022-07-23T13:06:49;6.15;;;2.60;;
60502;SDS011;51448;51.660;5.824;2022-07-23T13:09:22;5.30;;;2.97;;
60502;SDS011;51448;51.660;5.824;2022-07-23T13:11:53;8.80;;;3.33;;
60502;SDS011;51448;51.660;5.824;2022-07-23T13:14:23;5.30;;;2.78;;
60502;SDS011;51448;51.660;5.824;2022-07-23T13:16:53;6.05;;;2.58;;
60502;SDS011;51448;51.660;5.824;2022-07-23T13:19:42;8.23;;;2.95;;
60502;SDS011;51448;51.660;5.824;2022-07-23T13:22:09;6.15;;;2.65;;
60502;SDS011;51448;51.660;5.824;2022-07-23T13:24:39;7.57;;;3.08;;
60502;SDS011;51448;51.660;5.824;2022-07-23T13:27:06;7.20;;;2.90;;
60502;SDS011;51448;51.660;5.824;2022-07-23T13:29:37;6.53;;;2.80;;
60502;SDS011;51448;51.660;5.824;2022-07-23T13:32:05;6.53;;;2.97;;
60502;SDS011;51448;51.660;5.824;2022-07-23T13:34:37;5.63;;;2.90;;
60502;SDS011;51448;51.660;5.824;2022-07-23T13:37:07;7.20;;;2.60;;
60502;SDS011;51448;51.660;5.824;2022-07-23T13:39:34;5.78;;;2.47;;
60502;SDS011;51448;51.660;5.824;2022-07-23T13:42:06;4.82;;;2.55;;
60502;SDS011;51448;51.660;5.824;2022-07-23T13:44:35;6.88;;;2.90;;
60502;SDS011;51448;51.660;5.824;2022-07-23T13:47:03;5.72;;;2.50;;
60502;SDS011;51448;51.660;5.824;2022-07-23T13:49:31;5.50;;;2.50;;
60502;SDS011;51448;51.660;5.824;2022-07-23T13:52:02;7.80;;;2.70;;
60502;SDS011;51448;51.660;5.824;2022-07-23T13:54:34;5.28;;;2.88;;
60502;SDS011;51448;51.660;5.824;2022-07-23T13:57:02;6.97;;;2.95;;
60502;SDS011;51448;51.660;5.824;2022-07-23T13:59:32;5.32;;;2.70;;
60502;SDS011;51448;51.660;5.824;2022-07-23T14:01:59;5.50;;;3.10;;
60502;SDS011;51448;51.660;5.824;2022-07-23T14:04:47;5.93;;;2.70;;
60502;SDS011;51448;51.660;5.824;2022-07-23T14:07:15;7.85;;;3.08;;
60502;SDS011;51448;51.660;5.824;2022-07-23T14:09:46;7.45;;;3.13;;
60502;SDS011;51448;51.660;5.824;2022-07-23T14:12:14;6.88;;;2.70;;
60502;SDS011;51448;51.660;5.824;2022-07-23T14:14:44;5.30;;;2.78;;
60502;SDS011;51448;51.660;5.824;2022-07-23T14:17:12;5.60;;;2.60;;
60502;SDS011;51448;51.660;5.824;2022-07-23T14:19:42;6.05;;;2.72;;
60502;SDS011;51448;51.660;5.824;2022-07-23T14:22:10;4.90;;;2.67;;
60502;SDS011;51448;51.660;5.824;2022-07-23T14:24:39;6.07;;;2.80;;
60502;SDS011;51448;51.660;5.824;2022-07-23T14:27:07;5.07;;;2.50;;
60502;SDS011;51448;51.660;5.824;2022-07-23T14:29:35;5.10;;;2.80;;
60502;SDS011;51448;51.660;5.824;2022-07-23T14:32:03;6.15;;;3.00;;
60502;SDS011;51448;51.660;5.824;2022-07-23T14:34:33;7.45;;;2.95;;
60502;SDS011;51448;51.660;5.824;2022-07-23T14:37:04;6.55;;;2.90;;
60502;SDS011;51448;51.660;5.824;2022-07-23T14:39:32;6.60;;;2.80;;
60502;SDS011;51448;51.660;5.824;2022-07-23T14:42:01;5.78;;;3.08;;
60502;SDS011;51448;51.660;5.824;2022-07-23T14:44:30;6.70;;;2.63;;
60502;SDS011;51448;51.660;5.824;2022-07-23T14:46:57;5.53;;;3.05;;
60502;SDS011;51448;51.660;5.824;2022-07-23T14:49:27;6.13;;;2.95;;
60502;SDS011;51448;51.660;5.824;2022-07-23T14:51:54;6.15;;;3.17;;
60502;SDS011;51448;51.660;5.824;2022-07-23T14:54:23;5.43;;;3.05;;
60502;SDS011;51448;51.660;5.824;2022-07-23T14:56:53;6.22;;;3.50;;
60502;SDS011;51448;51.660;5.824;2022-07-23T14:59:23;5.33;;;2.83;;
60502;SDS011;51448;51.660;5.824;2022-07-23T15:01:52;6.63;;;3.10;;
60502;SDS011;51448;51.660;5.824;2022-07-23T15:07:07;7.55;;;3.22;;
60502;SDS011;51448;51.660;5.824;2022-07-23T15:09:35;6.40;;;3.25;;
60502;SDS011;51448;51.660;5.824;2022-07-23T15:12:03;8.15;;;3.40;;
60502;SDS011;51448;51.660;5.824;2022-07-23T15:14:34;5.20;;;2.92;;
60502;SDS011;51448;51.660;5.824;2022-07-23T15:17:02;8.52;;;2.90;;
60502;SDS011;51448;51.660;5.824;2022-07-23T15:19:29;6.22;;;3.17;;
60502;SDS011;51448;51.660;5.824;2022-07-23T15:21:57;5.70;;;3.28;;
60502;SDS011;51448;51.660;5.824;2022-07-23T15:24:28;7.43;;;3.45;;
60502;SDS011;51448;51.660;5.824;2022-07-23T15:26:55;5.63;;;2.80;;
60502;SDS011;51448;51.660;5.824;2022-07-23T15:29:24;6.40;;;2.85;;
60502;SDS011;51448;51.660;5.824;2022-07-23T15:31:51;5.05;;;3.00;;
60502;SDS011;51448;51.660;5.824;2022-07-23T15:34:25;8.35;;;3.67;;
60502;SDS011;51448;51.660;5.824;2022-07-23T15:36:54;8.00;;;3.30;;
60502;SDS011;51448;51.660;5.824;2022-07-23T15:39:21;4.35;;;2.85;;
60502;SDS011;51448;51.660;5.824;2022-07-23T15:41:49;7.40;;;3.20;;
60502;SDS011;51448;51.660;5.824;2022-07-23T15:44:18;6.60;;;3.10;;